Sierra Nevada Aquatic Research Lab (SNARL) Reserve, Santa Monica Mtns, California Weather observations

Data are for 10 minute period ending at time listed.
 Day   Time   Solar   Ave.   Ave.  Ave.  Vector  Max.   Baro.   Total    
  of    of     Rad.   Air    Rel.  Wind   Wind   Wind  Press.  Precip.   
Year   Day            Temp.  Hum.  Speed  Dir.   Gust                    
2014   (PST)  Kw/m2    F      %     mph   deg.    mph    mb.     in.     
-------------------------------------------------------------------------
 354    1:10   0.00   29.9    82    2.1   359     4.4   784.3    0.00 
 354    1:20   0.00   30.2    80    2.5   312     5.7   784.4    0.00 
 354    1:30   0.00   29.9    82    1.9   146     4.3   784.7    0.00 
 354    1:40   0.00   30.0    82    1.4   100     3.7   785.0    0.00 
 354    1:50   0.00   29.7    84    2.7   194     6.1   784.8    0.00 
 354    2:00   0.00   30.3    82    3.0   339     6.7   784.6    0.00 
 354    2:10   0.00   31.1    78    0.6    18     2.0   784.6    0.00 
 354    2:20   0.00   30.9    80    3.0    83     5.5   784.4    0.00 
 354    2:30   0.00   30.6    81    2.4   275     4.7   784.3    0.00 
 354    2:40   0.00   30.6    81    2.3   261     5.9   784.4    0.00 
 354    2:50   0.00   30.5    82    0.8   136     3.0   784.3    0.00 
 354    3:00   0.00   30.4    83    2.5   172     4.9   784.2    0.00 
 354    3:10   0.00   30.4    83    2.0   234     4.6   784.1    0.00 
 354    3:20   0.00   30.7    82    4.3    34     8.6   784.1    0.00 
 354    3:30   0.00   31.1    80    2.5    22     6.3   784.0    0.00 
 354    3:40   0.00   30.9    81    1.9    89     3.7   783.9    0.00 
 354    3:50   0.00   30.8    82    2.5    76     5.9   783.7    0.00 
 354    4:00   0.00   30.9    82    3.9    69     9.0   783.7    0.00 
 354    4:10   0.00   31.3    80    3.6    63     8.6   783.7    0.00 
 354    4:20   0.00   31.3    80    5.9    72     9.7   784.0    0.00 
 354    4:30   0.00   31.2    82    5.5   116    10.2   783.9    0.00 
 354    4:40   0.00   31.2    82    2.2    19     4.2   783.7    0.00 
 354    4:50   0.00   31.1    82    2.6   179     4.8   783.8    0.00 
 354    5:00   0.00   31.9    80    2.5   192     4.1   784.0    0.00 
 354    5:10   0.00   32.0    81    2.1    41     3.1   783.9    0.00 
 354    5:20   0.00   31.7    82    2.8   275     5.7   784.0    0.00 
 354    5:30   0.00   32.2    81    1.7   131     4.4   784.0    0.00 
 354    5:40   0.00   32.3    80    3.9    59     8.0   783.8    0.00 
 354    5:50   0.00   31.9    80    4.8    48     9.3   783.8    0.00 
 354    6:00   0.00   31.3    82    4.6    52    11.9   783.9    0.00 
 354    6:10   0.00   31.5    81    3.8   131     7.4   784.3    0.00 
 354    6:20   0.00   32.4    79    3.0   160     6.5   784.2    0.00 
 354    6:30   0.00   33.5    75    4.1    30     8.6   784.1    0.00 
 354    6:40   0.00   33.5    76    1.6    23     5.3   784.4    0.00 
 354    6:50   0.00   32.7    77    1.8   115     4.1   784.4    0.00 
 354    7:00   0.00   32.4    79    2.3    61     5.4   784.3    0.00 
 354    7:10   0.00   32.2    80    4.0   329     7.8   784.3    0.00 
 354    7:20   0.00   32.6    77    3.8    26     9.4   784.2    0.00 
 354    7:30   0.01   32.9    75    5.7    41    10.2   784.2    0.00 
 354    7:40   0.02   32.5    76    2.4    86     7.1   784.4    0.00 
 354    7:50   0.03   32.3    78    2.7   132     4.2   784.4    0.00 
 354    8:00   0.03   32.4    78    2.6    60     5.3   784.6    0.00 
 354    8:10   0.05   33.2    77    2.4   138     6.9   784.5    0.00 
 354    8:20   0.07   34.7    73    2.4   313     5.0   784.8    0.00 
 354    8:30   0.07   34.8    72    5.2    78    10.9   784.6    0.00 
 354    8:40   0.07   34.6    73    6.2    52    12.6   784.8    0.00 
 354    8:50   0.07   34.6    74    6.0    65     9.3   784.9    0.00 
 354    9:00   0.11   34.9    74    3.8    51     8.8   784.9    0.00 
 354    9:10   0.13   35.8    73    4.6    42     8.9   784.8    0.00 
 354    9:20   0.11   35.7    74    5.3    50     9.1   784.9    0.00 
 354    9:30   0.12   35.9    73    3.2    66     7.4   785.1    0.00 
 354    9:40   0.15   36.8    70    2.5    98     4.5   785.1    0.00 
 354    9:50   0.17   37.8    69    4.9    41     8.8   785.1    0.00 
 354   10:00   0.12   37.7    69    3.2    51     8.8   785.1    0.00 
 354   10:10   0.34   38.9    67    3.6    23     8.0   785.4    0.00 
 354   10:20   0.21   40.5    62    5.8   326    16.1   785.5    0.00 
 354   10:30   0.23   41.5    59    4.9    21    11.4   785.4    0.00 
 354   10:40   0.17   44.1    52    8.6   236    27.2   785.0    0.00 
 354   10:50   0.23   45.9    46   14.2   216    28.5   784.5    0.00 
 354   11:00   0.24   46.6    45   18.0   218    30.5   784.2    0.00 
 354   11:10   0.19   46.5    45   18.8   221    30.7   784.1    0.00 
 354   11:20   0.23   45.0    52   12.2   159    24.1   784.2    0.00 
 354   11:30   0.20   41.4    61    7.6    69    12.9   784.2    0.00 
 354   11:40   0.14   41.0    63    8.2    49    17.7   784.1    0.00 
 354   11:50   0.11   40.7    64    3.7    37     9.3   784.3    0.00 
 354   12:00   0.15   40.8    64    6.7    51    13.5   784.4    0.00 
 354   12:10   0.15   42.0    59    3.8   100    11.7   784.3    0.00 
 354   12:20   0.13   42.8    57    3.5    29    10.7   784.1    0.00 
 354   12:30   0.14   45.6    50    8.2   226    19.1   783.9    0.00 
 354   12:40   0.22   44.6    54    6.5   335    15.6   783.7    0.00 
 354   12:50   0.22   44.1    56    5.6    58    10.7   783.5    0.00 
 354   13:00   0.17   44.3    55    7.1    94    10.3   783.4    0.00 
 354   13:10   0.17   44.6    55    4.7    64     9.3   783.3    0.00 
 354   13:20   0.23   45.0    56    6.2    51     9.6   783.1    0.00 
 354   13:30   0.19   44.6    57    6.4    82    12.3   783.3    0.00 
 354   13:40   0.15   45.1    54    2.8   161     8.6   783.4    0.00 
 354   13:50   0.17   46.1    54    1.8   356     3.6   783.2    0.00 
 354   14:00   0.19   45.9    54    2.2    18     6.1   782.8    0.00 
 354   14:10   0.28   46.3    54    5.6    52     9.9   782.8    0.00 
 354   14:20   0.20   46.4    53    4.3   101     8.4   783.2    0.00 
 354   14:30   0.12   46.3    54    8.0   295    19.7   783.7    0.00 
 354   14:40   0.09   45.6    54   12.0   287    19.1   783.8    0.00 
 354   14:50   0.11   45.4    56    9.3   298    17.5   783.6    0.00 
 354   15:00   0.11   44.1    59   10.1   321    17.4   783.6    0.00 
 354   15:10   0.09   44.2    58    8.3   307    14.0   783.7    0.00 
 354   15:20   0.10   45.3    56    6.8   293    15.0   783.8    0.00 
 354   15:30   0.08   45.8    54    9.0   285    19.6   783.9    0.00 
 354   15:40   0.07   46.1    52   10.5   287    17.1   783.8    0.00 
 354   15:50   0.06   44.9    55   10.0   286    16.3   783.8    0.00 
 354   16:00   0.03   43.6    58    7.1   294    13.5   784.3    0.00 
 354   16:10   0.01   42.6    60    3.9   286     8.7   784.7    0.00 
 354   16:20   0.01   41.6    62    5.0   287    11.3   784.8    0.00 
 354   16:30   0.00   40.6    64    5.9   249    10.4   784.9    0.00 
 354   16:40   0.00   40.1    65    5.3   273    12.8   785.0    0.00 
 354   16:50   0.00   40.5    65    9.0   270    13.7   785.0    0.00 
 354   17:00   0.00   40.9    64    6.4   271    10.7   784.9    0.00 
 354   17:10   0.00   40.5    65    3.3   304     6.8   784.9    0.00 
 354   17:20   0.00   39.6    67    2.2   357     3.9   785.0    0.00 
 354   17:30   0.00   38.8    70    4.3   262    10.7   785.2    0.00 
 354   17:40   0.00   40.7    66    4.1   260     9.8   785.1    0.00 
 354   17:50   0.00   40.8    66    2.9    21     5.9   785.2    0.00 
 354   18:00   0.00   38.5    72    2.3    97     5.2   785.5    0.00 
 354   18:10   0.00   38.2    72    5.2   259     9.9   785.6    0.00 
 354   18:20   0.00   39.3    70    4.4    30     9.4   785.7    0.00 
 354   18:30   0.00   37.6    75    4.1    74     7.8   785.9    0.00 
 354   18:40   0.00   38.4    72    1.4    84     4.4   786.0    0.00 
 354   18:50   0.00   37.4    75    2.0   176     4.6   786.0    0.00 
 354   19:00   0.00   36.5    77    1.9   195     5.6   786.1    0.00 
 354   19:10   0.00   36.4    77    1.9   162     3.1   786.3    0.00 
 354   19:20   0.00   36.8    77    3.1   240     5.3   786.4    0.00 
 354   19:30   0.00   38.1    75    2.8   228     4.5   786.4    0.00 
 354   19:40   0.00   38.3    75    3.7   253     6.0   786.5    0.00 
 354   19:50   0.00   39.8    71    4.6   278     8.0   786.6    0.00 
 354   20:00   0.00   41.3    68    5.3   278     8.0   786.5    0.00 
 354   20:10   0.00   40.8    69    5.8   270     8.7   786.4    0.00 
 354   20:20   0.00   39.6    71    4.3   290     8.6   786.5    0.00 
 354   20:30   0.00   36.5    77    2.3    85     4.6   786.6    0.00 
 354   20:40   0.00   35.9    78    2.2   303     4.2   786.9    0.00 
 354   20:50   0.00   34.5    82    3.6   217     5.2   786.9    0.00 
 354   21:00   0.00   36.6    78    4.6   259     8.3   787.0    0.00 
 354   21:10   0.00   38.8    73    5.3   284     9.4   786.9    0.00 
 354   21:20   0.00   40.9    68    7.7   297    10.5   786.8    0.00 
 354   21:30   0.00   41.6    65    6.6   309    10.4   787.0    0.00 
 354   21:40   0.00   38.8    71    6.4   315     8.7   787.2    0.00 
 354   21:50   0.00   39.7    70    6.8   281    10.5   787.4    0.00 
 354   22:00   0.00   43.9    61    8.0   277    12.0   787.5    0.00 
 354   22:10   0.00   44.7    60    8.1   276    11.2   787.5    0.00 
 354   22:20   0.00   43.6    62    6.9   263     9.1   787.5    0.00 
 354   22:30   0.00   42.9    63    7.7   277    12.6   787.7    0.00 
 354   22:40   0.00   43.2    62    7.4   265    10.2   787.6    0.00 
 354   22:50   0.00   42.0    64    7.2   273    10.2   787.6    0.00 
 354   23:00   0.00   43.6    60    8.0   290    11.7   787.7    0.00 
 354   23:10   0.00   43.2    61    8.9   283    12.6   787.7    0.00 
 354   23:20   0.00   42.9    62    7.1   274    10.7   787.7    0.00 
 354   23:30   0.00   43.4    61    7.3   291    10.7   787.7    0.00 
 354   23:40   0.00   42.4    63    7.1   305    10.2   787.7    0.00 
 354   23:50   0.00   40.4    68    5.7   294     9.8   787.7    0.00 
 355    0:00   0.00   40.8    65    3.2   298     9.3   787.7    0.00 
 355    0:10   0.00   36.3    76    2.3    88     4.5   787.7    0.00 
 355    0:20   0.00   35.1    79    1.6   298     5.7   787.6    0.00 
 355    0:30   0.00   34.0    80    4.2    57     7.9   787.6    0.00 
 355    0:40   0.00   32.6    85    3.6    69     6.1   787.6    0.00 
 355    0:50   0.00   32.4    86    2.4    23     6.1   787.7    0.00 
 355    1:00   0.00   32.4    86    2.6   222     6.5   787.7    0.00 

Return to SNARL Reserve graphs page.


Western Regional Climate Center,wrcc@dri.edu